CSAV Lonquen — A8OT2 — position and weather

sailwx.info

Track history (hours):
 
Tides and Currents Weather Stations Pressure Air Temp Water Temp Dewpoint Dewpoint Depression Visibility Wind Speed Wind Dir Waves Ship Positions

CSAV Lonquen

Last reported at 2016-Jun-26 20:18 UTC. Time now 2016-Jun-29 03:49 UTC.
Position N 31°13' E 029°45'.

Length 261 m; draft 9.3 m.

Type: Ship (hazmat cat A). MMSI: 636091501.

Date/timePositionNaut miles runAvg speedWind from/ knotsBaromVisibWave heightAir tempDewpointWater temp
2016-Jun-26 20:18N 31°13' E 029°45'0 0.0
2016-Jun-26 14:21N 31°13' E 029°45'0 0.0
2016-Jun-26 13:27N 31°13' E 029°45'0 0.0
2016-Jun-26 12:33N 31°13' E 029°45'37 1.5
2016-Jun-25 12:32N 31°44' E 030°09'1111.1
2016-Jun-25 11:32N 31°51' E 030°18'6011.3
2016-Jun-25 06:16N 32°10' E 031°25'811.5
2016-Jun-25 05:33N 32°15' E 031°33'1311.7
2016-Jun-25 04:27N 32°20' E 031°47'4711.8
2016-Jun-25 00:29N 32°37' E 032°39'1111.7
2016-Jun-24 23:33N 32°40' E 032°51'1211.9
2016-Jun-24 22:33N 32°44' E 033°04'1212.1
2016-Jun-24 21:33N 32°49' E 033°18'1212.1
2016-Jun-24 20:33N 32°53' E 033°31'1211.8
2016-Jun-24 19:33N 32°57' E 033°44'1211.7
2016-Jun-24 18:33N 33°01' E 033°58'1111.5
2016-Jun-24 17:33N 33°00' E 034°11'1111.4
2016-Jun-24 16:33N 32°58' E 034°25'1311.4
2016-Jun-24 15:28N 32°56' E 034°39'1111.8
2016-Jun-24 14:33N 32°54' E 034°52'9 8.8
2016-Jun-24 13:34N 32°49' E 035°01'0 0.2
2016-Jun-24 12:31N 32°49' E 035°01'0 0.0
2016-Jun-24 11:31N 32°49' E 035°01'0 0.0
2016-Jun-24 10:31N 32°49' E 035°01'0 0.0
2016-Jun-24 09:31N 32°49' E 035°01'0 0.0
2016-Jun-24 08:31N 32°49' E 035°01'0 0.0
2016-Jun-24 07:31N 32°49' E 035°01'0 0.0
2016-Jun-24 06:31N 32°49' E 035°01'0 0.0
2016-Jun-24 04:31N 32°49' E 035°01'0 0.0
2016-Jun-24 03:31N 32°49' E 035°01'0 0.1
2016-Jun-24 02:25N 32°49' E 035°01'0 0.1
2016-Jun-24 01:28N 32°49' E 035°01'0 0.0
2016-Jun-24 00:31N 32°49' E 035°01'0 0.0
2016-Jun-23 23:31N 32°49' E 035°01'0 0.0
2016-Jun-23 22:31N 32°49' E 035°01'0 0.0
2016-Jun-23 21:31N 32°49' E 035°01'0 0.0
2016-Jun-23 20:28N 32°49' E 035°01'0 0.0
2016-Jun-23 19:31N 32°49' E 035°01'0 0.0
2016-Jun-23 18:31N 32°49' E 035°01'0 0.0
2016-Jun-23 17:31N 32°49' E 035°01'0 0.0
2016-Jun-23 16:31N 32°49' E 035°01'0 0.0
2016-Jun-23 15:31N 32°49' E 035°01'0 0.0
2016-Jun-23 14:33N 32°49' E 035°01'2 2.3
2016-Jun-23 13:33N 32°51' E 034°60'3 2.9
2016-Jun-23 12:31N 32°54' E 034°60'0 0.1
2016-Jun-23 11:31N 32°54' E 034°60'0 0.0
2016-Jun-23 10:31N 32°54' E 034°60'0 0.0
2016-Jun-23 09:33N 32°54' E 034°60'3 2.6
2016-Jun-23 08:33N 32°54' E 034°57'1312.4
2016-Jun-23 07:33N 32°45' E 034°47'3216.3
2016-Jun-23 05:33N 32°14' E 034°36'2016.9
2016-Jun-23 04:23N 31°55' E 034°30'9 0.6
2016-Jun-22 12:28N 31°49' E 034°39'0 0.0
2016-Jun-22 11:31N 31°49' E 034°39'0 0.0
2016-Jun-22 10:25N 31°49' E 034°39'0 0.0
2016-Jun-22 09:28N 31°49' E 034°39'6 0.8
2016-Jun-22 01:31N 31°52' E 034°32'1414.2
2016-Jun-22 00:33N 31°56' E 034°16'1616.5
2016-Jun-21 23:33N 32°03' E 033°59'1514.8
2016-Jun-21 22:33N 32°13' E 033°46'1616.4
2016-Jun-21 21:33N 32°29' E 033°41'1616.3
2016-Jun-21 20:33N 32°45' E 033°36'1716.6
2016-Jun-21 19:33N 33°01' E 033°31'1716.9
2016-Jun-21 18:34N 33°17' E 033°27'1717.3
2016-Jun-21 17:33N 33°34' E 033°22'1818.4
2016-Jun-21 16:33N 33°52' E 033°17'1818.2
2016-Jun-21 15:33N 34°10' E 033°12'1817.9
2016-Jun-21 14:33N 34°27' E 033°07'1312.6
2016-Jun-21 13:33N 34°39' E 033°01'0 0.1
2016-Jun-21 12:32N 34°39' E 033°01'0 0.0
2016-Jun-21 11:32N 34°39' E 033°01'0 0.0
2016-Jun-21 10:32N 34°39' E 033°01'0 0.0
2016-Jun-21 09:32N 34°39' E 033°01'0 0.0
2016-Jun-21 08:32N 34°39' E 033°01'0 0.0
2016-Jun-21 07:32N 34°39' E 033°01'0 0.0
2016-Jun-21 04:32N 34°39' E 033°01'0 0.0
2016-Jun-21 03:32N 34°39' E 033°01'0 0.0
2016-Jun-21 02:32N 34°39' E 033°01'0 0.0
2016-Jun-21 01:32N 34°39' E 033°01'0 0.0
2016-Jun-21 00:32N 34°39' E 033°01'0 0.0
2016-Jun-20 23:32N 34°39' E 033°01'0 0.0
2016-Jun-20 22:32N 34°39' E 033°01'0 0.0
2016-Jun-20 21:32N 34°39' E 033°01'0 0.0
2016-Jun-20 20:32N 34°39' E 033°01'0 0.0
2016-Jun-20 19:32N 34°39' E 033°01'0 0.0
2016-Jun-20 18:32N 34°39' E 033°01'0 0.0
2016-Jun-20 17:32N 34°39' E 033°01'0 0.0
2016-Jun-20 16:32N 34°39' E 033°01'0 0.0
2016-Jun-20 15:32N 34°39' E 033°01'0 0.0
2016-Jun-20 14:32N 34°39' E 033°01'0 0.0
2016-Jun-20 13:32N 34°39' E 033°01'0 0.0
2016-Jun-20 12:32N 34°39' E 033°01'0 0.0
2016-Jun-20 11:32N 34°39' E 033°01'1 1.4
2016-Jun-20 10:33N 34°39' E 033°03'4 3.7
2016-Jun-20 09:33N 34°36' E 033°05'1514.6
2016-Jun-20 08:33N 34°31' E 032°48'1919.1
2016-Jun-20 07:33N 34°33' E 032°25'70318.8
2016-Jun-18 18:14N 35°49' E 018°11'1419.8
2016-Jun-18 17:33N 35°52' E 017°54'13919.8
2016-Jun-18 10:33N 36°22' E 015°07'1919.3
2016-Jun-18 09:33N 36°27' E 014°44'2019.8
2016-Jun-18 08:33N 36°32' E 014°20'2019.9
2016-Jun-18 07:33N 36°37' E 013°56'2120.5
2016-Jun-18 06:32N 36°42' E 013°31'17919.9
2016-Jun-17 21:30N 37°32' E 009°55'41619.9
2016-Jun-17 00:33N 36°47' E 001°16'4320.7
2016-Jun-16 22:29N 36°41' E 000°23'  
Track history (hours):
 
Tides and Currents Weather Stations Pressure Air Temp Water Temp Dewpoint Dewpoint Depression Visibility Wind Speed Wind Dir Waves Ship Positions

CSAV Lonquen

Last reported at 2016-Jun-26 20:18 UTC. Time now 2016-Jun-29 03:49 UTC.
Position N 31°13' E 029°45'.

Length 261 m; draft 9.3 m.

Type: Ship (hazmat cat A). MMSI: 636091501.

Date/timePositionNaut miles runAvg speedWind from/ knotsBaromVisibWave heightAir tempDewpointWater temp
2016-Jun-26 20:18N 31°13' E 029°45'0 0.0
2016-Jun-26 14:21N 31°13' E 029°45'0 0.0
2016-Jun-26 13:27N 31°13' E 029°45'0 0.0
2016-Jun-26 12:33N 31°13' E 029°45'37 1.5
2016-Jun-25 12:32N 31°44' E 030°09'1111.1
2016-Jun-25 11:32N 31°51' E 030°18'6011.3
2016-Jun-25 06:16N 32°10' E 031°25'811.5
2016-Jun-25 05:33N 32°15' E 031°33'1311.7
2016-Jun-25 04:27N 32°20' E 031°47'4711.8
2016-Jun-25 00:29N 32°37' E 032°39'1111.7
2016-Jun-24 23:33N 32°40' E 032°51'1211.9
2016-Jun-24 22:33N 32°44' E 033°04'1212.1
2016-Jun-24 21:33N 32°49' E 033°18'1212.1
2016-Jun-24 20:33N 32°53' E 033°31'1211.8
2016-Jun-24 19:33N 32°57' E 033°44'1211.7
2016-Jun-24 18:33N 33°01' E 033°58'1111.5
2016-Jun-24 17:33N 33°00' E 034°11'1111.4
2016-Jun-24 16:33N 32°58' E 034°25'1311.4
2016-Jun-24 15:28N 32°56' E 034°39'1111.8
2016-Jun-24 14:33N 32°54' E 034°52'9 8.8
2016-Jun-24 13:34N 32°49' E 035°01'0 0.2
2016-Jun-24 12:31N 32°49' E 035°01'0 0.0
2016-Jun-24 11:31N 32°49' E 035°01'0 0.0
2016-Jun-24 10:31N 32°49' E 035°01'0 0.0
2016-Jun-24 09:31N 32°49' E 035°01'0 0.0
2016-Jun-24 08:31N 32°49' E 035°01'0 0.0
2016-Jun-24 07:31N 32°49' E 035°01'0 0.0
2016-Jun-24 06:31N 32°49' E 035°01'0 0.0
2016-Jun-24 04:31N 32°49' E 035°01'0 0.0
2016-Jun-24 03:31N 32°49' E 035°01'0 0.1
2016-Jun-24 02:25N 32°49' E 035°01'0 0.1
2016-Jun-24 01:28N 32°49' E 035°01'0 0.0
2016-Jun-24 00:31N 32°49' E 035°01'0 0.0
2016-Jun-23 23:31N 32°49' E 035°01'0 0.0
2016-Jun-23 22:31N 32°49' E 035°01'0 0.0
2016-Jun-23 21:31N 32°49' E 035°01'0 0.0
2016-Jun-23 20:28N 32°49' E 035°01'0 0.0
2016-Jun-23 19:31N 32°49' E 035°01'0 0.0
2016-Jun-23 18:31N 32°49' E 035°01'0 0.0
2016-Jun-23 17:31N 32°49' E 035°01'0 0.0
2016-Jun-23 16:31N 32°49' E 035°01'0 0.0
2016-Jun-23 15:31N 32°49' E 035°01'0 0.0
2016-Jun-23 14:33N 32°49' E 035°01'2 2.3
2016-Jun-23 13:33N 32°51' E 034°60'3 2.9
2016-Jun-23 12:31N 32°54' E 034°60'0 0.1
2016-Jun-23 11:31N 32°54' E 034°60'0 0.0
2016-Jun-23 10:31N 32°54' E 034°60'0 0.0
2016-Jun-23 09:33N 32°54' E 034°60'3 2.6
2016-Jun-23 08:33N 32°54' E 034°57'1312.4
2016-Jun-23 07:33N 32°45' E 034°47'3216.3
2016-Jun-23 05:33N 32°14' E 034°36'2016.9
2016-Jun-23 04:23N 31°55' E 034°30'9 0.6
2016-Jun-22 12:28N 31°49' E 034°39'0 0.0
2016-Jun-22 11:31N 31°49' E 034°39'0 0.0
2016-Jun-22 10:25N 31°49' E 034°39'0 0.0
2016-Jun-22 09:28N 31°49' E 034°39'6 0.8
2016-Jun-22 01:31N 31°52' E 034°32'1414.2
2016-Jun-22 00:33N 31°56' E 034°16'1616.5
2016-Jun-21 23:33N 32°03' E 033°59'1514.8
2016-Jun-21 22:33N 32°13' E 033°46'1616.4
2016-Jun-21 21:33N 32°29' E 033°41'1616.3
2016-Jun-21 20:33N 32°45' E 033°36'1716.6
2016-Jun-21 19:33N 33°01' E 033°31'1716.9
2016-Jun-21 18:34N 33°17' E 033°27'1717.3
2016-Jun-21 17:33N 33°34' E 033°22'1818.4
2016-Jun-21 16:33N 33°52' E 033°17'1818.2
2016-Jun-21 15:33N 34°10' E 033°12'1817.9
2016-Jun-21 14:33N 34°27' E 033°07'1312.6
2016-Jun-21 13:33N 34°39' E 033°01'0 0.1
2016-Jun-21 12:32N 34°39' E 033°01'0 0.0
2016-Jun-21 11:32N 34°39' E 033°01'0 0.0
2016-Jun-21 10:32N 34°39' E 033°01'0 0.0
2016-Jun-21 09:32N 34°39' E 033°01'0 0.0
2016-Jun-21 08:32N 34°39' E 033°01'0 0.0
2016-Jun-21 07:32N 34°39' E 033°01'0 0.0
2016-Jun-21 04:32N 34°39' E 033°01'0 0.0
2016-Jun-21 03:32N 34°39' E 033°01'0 0.0
2016-Jun-21 02:32N 34°39' E 033°01'0 0.0
2016-Jun-21 01:32N 34°39' E 033°01'0 0.0
2016-Jun-21 00:32N 34°39' E 033°01'0 0.0
2016-Jun-20 23:32N 34°39' E 033°01'0 0.0
2016-Jun-20 22:32N 34°39' E 033°01'0 0.0
2016-Jun-20 21:32N 34°39' E 033°01'0 0.0
2016-Jun-20 20:32N 34°39' E 033°01'0 0.0
2016-Jun-20 19:32N 34°39' E 033°01'0 0.0
2016-Jun-20 18:32N 34°39' E 033°01'0 0.0
2016-Jun-20 17:32N 34°39' E 033°01'0 0.0
2016-Jun-20 16:32N 34°39' E 033°01'0 0.0
2016-Jun-20 15:32N 34°39' E 033°01'0 0.0
2016-Jun-20 14:32N 34°39' E 033°01'0 0.0
2016-Jun-20 13:32N 34°39' E 033°01'0 0.0
2016-Jun-20 12:32N 34°39' E 033°01'0 0.0
2016-Jun-20 11:32N 34°39' E 033°01'1 1.4
2016-Jun-20 10:33N 34°39' E 033°03'4 3.7
2016-Jun-20 09:33N 34°36' E 033°05'1514.6
2016-Jun-20 08:33N 34°31' E 032°48'1919.1
2016-Jun-20 07:33N 34°33' E 032°25'70318.8
2016-Jun-18 18:14N 35°49' E 018°11'1419.8
2016-Jun-18 17:33N 35°52' E 017°54'13919.8
2016-Jun-18 10:33N 36°22' E 015°07'1919.3
2016-Jun-18 09:33N 36°27' E 014°44'2019.8
2016-Jun-18 08:33N 36°32' E 014°20'2019.9
2016-Jun-18 07:33N 36°37' E 013°56'2120.5
2016-Jun-18 06:32N 36°42' E 013°31'17919.9
2016-Jun-17 21:30N 37°32' E 009°55'41619.9
2016-Jun-17 00:33N 36°47' E 001°16'4320.7
2016-Jun-16 22:29N 36°41' E 000°23'  

Dump ship's entire track history